createdAt,value
2023-03-07T00:00:03.192Z,99610.44
2023-03-07T00:05:08.183Z,99593.94
2023-03-07T00:10:11.626Z,99589.53
2023-03-07T00:15:13.846Z,99592.75
2023-03-07T00:20:17.609Z,99580.47
2023-03-07T00:25:19.717Z,99576.81
2023-03-07T00:30:21.895Z,99565.53
2023-03-07T00:35:25.610Z,99553.25
2023-03-07T00:40:27.494Z,99544.59
2023-03-07T00:45:29.562Z,99525.53
2023-03-07T00:50:34.393Z,99520.31
2023-03-07T00:55:36.114Z,99513.47
2023-03-07T01:00:38.055Z,99514.50
2023-03-07T01:05:42.078Z,99499.03
2023-03-07T01:10:44.351Z,99493.06
2023-03-07T01:15:46.762Z,99467.97
2023-03-07T01:20:50.418Z,99460.34
2023-03-07T01:25:58.534Z,99457.84
2023-03-07T01:31:00.852Z,99440.56
2023-03-07T01:36:04.868Z,99421.47
2023-03-07T01:41:07.076Z,99409.41
2023-03-07T01:46:56.806Z,99400.00
2023-03-07T01:52:05.539Z,99390.53
2023-03-07T01:57:08.350Z,99378.47
2023-03-07T02:02:13.584Z,99355.09
2023-03-07T02:07:21.204Z,99351.72
2023-03-07T02:12:23.748Z,99346.56
2023-03-07T02:17:26.225Z,99324.91
2023-03-07T02:22:30.081Z,99315.34
2023-03-07T02:27:36.523Z,99297.16
2023-03-07T02:32:38.724Z,99292.88
2023-03-07T02:37:43.865Z,99288.56
2023-03-07T02:42:53.449Z,99274.69
2023-03-07T02:47:55.604Z,99261.69
2023-03-07T02:52:57.685Z,99253.88
2023-03-07T02:58:01.214Z,99242.66
2023-03-07T03:03:03.527Z,99222.66
2023-03-07T03:08:06.556Z,99207.06
2023-03-07T03:13:10.307Z,99203.59
2023-03-07T03:18:12.297Z,99187.97
2023-03-07T03:23:14.440Z,99178.41
2023-03-07T03:28:17.888Z,99161.03
2023-03-07T03:33:22.992Z,99153.25
2023-03-07T03:38:26.721Z,99136.75
2023-03-07T03:43:30.224Z,99133.31
2023-03-07T03:48:32.306Z,99122.03
2023-03-07T03:53:36.241Z,99115.09
2023-03-07T03:58:40.916Z,99109.91
2023-03-07T04:03:45.864Z,99094.25
2023-03-07T04:08:48.277Z,99096.88
2023-03-07T04:13:52.152Z,99083.84
2023-03-07T04:18:53.891Z,99081.28
2023-03-07T04:23:56.029Z,99069.13
2023-03-07T04:28:59.607Z,99054.38
2023-03-07T04:34:01.440Z,99058.72
2023-03-07T04:39:04.564Z,99049.16
2023-03-07T04:44:08.097Z,99038.72
2023-03-07T04:49:10.263Z,99033.50
2023-03-07T04:54:12.441Z,99021.31
2023-03-07T04:59:15.900Z,99016.94
2023-03-07T05:04:18.026Z,98999.56
2023-03-07T05:09:20.089Z,99007.41
2023-03-07T05:14:23.445Z,99001.31
2023-03-07T05:19:25.590Z,98991.75
2023-03-07T05:24:27.799Z,98992.59
2023-03-07T05:29:31.587Z,98987.41
2023-03-07T05:34:33.729Z,98983.03
2023-03-07T05:39:36.239Z,98978.69
2023-03-07T05:44:39.381Z,98990.03
2023-03-07T05:49:41.478Z,98981.28
2023-03-07T05:54:43.588Z,98985.66
2023-03-07T05:59:47.071Z,98984.78
2023-03-07T06:04:48.987Z,98970.88
2023-03-07T06:09:51.284Z,98971.72
2023-03-07T06:14:54.517Z,98969.13
2023-03-07T06:19:56.908Z,98966.50
2023-03-07T06:24:59.061Z,98949.97
2023-03-07T06:30:02.823Z,98954.31
2023-03-07T06:35:05.783Z,98952.56
2023-03-07T06:40:10.906Z,98954.25
2023-03-07T06:45:14.611Z,98968.16
2023-03-07T06:50:23.736Z,98965.56
2023-03-07T06:55:32.579Z,98973.38
2023-03-07T07:00:36.166Z,98976.84
2023-03-07T07:05:37.979Z,98974.19
2023-03-07T07:10:40.064Z,98971.56
2023-03-07T07:15:46.718Z,98966.34
2023-03-07T07:20:54.623Z,98970.66
2023-03-07T07:25:56.288Z,98956.69
2023-03-07T07:31:00.370Z,98960.16
2023-03-07T07:36:02.354Z,98959.25
2023-03-07T07:41:05.010Z,98951.38
2023-03-07T07:46:10.638Z,98953.16
2023-03-07T07:51:14.945Z,98946.16
2023-03-07T07:56:17.303Z,98953.06
2023-03-07T08:01:22.482Z,98951.28
2023-03-07T08:06:26.202Z,98938.13
2023-03-07T08:11:30.448Z,98937.25
2023-03-07T08:16:33.973Z,98945.00
2023-03-07T08:21:36.145Z,98937.09
2023-03-07T08:26:38.324Z,98934.38
2023-03-07T08:31:43.735Z,98940.41
2023-03-07T08:36:46.293Z,98934.16
2023-03-07T08:41:48.590Z,98941.72
2023-03-07T08:46:51.828Z,98938.88
2023-03-07T08:51:53.545Z,98939.63
2023-03-07T08:56:58.786Z,98940.53
2023-03-07T09:02:04.619Z,98944.84
2023-03-07T09:07:06.693Z,98949.00
2023-03-07T09:12:09.440Z,98951.25
2023-03-07T09:17:12.912Z,98948.19
2023-03-07T09:22:15.022Z,98954.91
2023-03-07T09:27:17.137Z,98958.06
2023-03-07T09:32:28.700Z,98946.56
2023-03-07T09:37:30.843Z,98943.53
2023-03-07T09:42:39.304Z,98937.75
2023-03-07T09:47:58.874Z,98938.59
2023-03-07T09:53:04.082Z,98946.00
2023-03-07T09:58:12.660Z,98944.25
2023-03-07T10:03:27.610Z,98946.09
2023-03-07T10:08:32.284Z,98948.63
2023-03-07T10:13:46.825Z,98936.50
2023-03-07T10:19:02.303Z,98941.81
2023-03-07T10:24:29.794Z,98947.59
2023-03-07T10:29:39.462Z,98952.81
2023-03-07T10:34:42.640Z,98945.69
2023-03-07T10:39:50.572Z,98937.00
2023-03-07T10:44:53.026Z,98933.72
2023-03-07T10:50:02.345Z,98930.84
2023-03-07T10:55:30.512Z,98926.44
2023-03-07T11:00:32.779Z,98909.84
2023-03-07T11:05:36.272Z,98908.22
2023-03-07T11:10:40.354Z,98900.25
2023-03-07T11:15:42.821Z,98896.88
2023-03-07T11:20:50.119Z,98889.75
2023-03-07T11:25:53.636Z,98886.34
2023-03-07T11:31:07.229Z,98888.19
2023-03-07T11:36:15.637Z,98880.44
2023-03-07T11:41:24.372Z,98879.56
2023-03-07T11:46:36.404Z,98871.91
2023-03-07T11:51:52.435Z,98871.84
2023-03-07T11:56:58.479Z,98860.59
2023-03-07T12:02:02.991Z,98872.25
2023-03-07T12:07:19.879Z,98881.22
2023-03-07T12:12:37.876Z,98869.88
2023-03-07T12:17:48.132Z,98867.38
2023-03-07T12:23:07.898Z,98870.19
2023-03-07T12:28:17.994Z,98881.69
2023-03-07T12:33:29.316Z,98873.13
2023-03-07T12:38:39.409Z,98868.78
2023-03-07T12:43:47.177Z,98872.31
2023-03-07T12:48:59.193Z,98874.78
2023-03-07T12:54:09.620Z,98879.28
2023-03-07T12:59:14.843Z,98880.25
2023-03-07T13:04:20.411Z,98891.72
2023-03-07T13:09:26.447Z,98896.09
2023-03-07T13:14:39.455Z,98898.81
2023-03-07T13:19:52.781Z,98905.81
2023-03-07T13:24:57.870Z,98909.34
2023-03-07T13:30:18.576Z,98894.47
2023-03-07T13:35:55.331Z,98895.97
2023-03-07T13:40:59.681Z,98894.25
2023-03-07T13:46:03.248Z,98903.03
2023-03-07T13:51:09.351Z,98898.75
2023-03-07T13:56:21.605Z,98905.66
2023-03-07T14:01:30.229Z,98902.25
2023-03-07T14:06:37.713Z,98900.63
2023-03-07T14:11:47.468Z,98898.88
2023-03-07T14:17:03.936Z,98892.78
2023-03-07T14:22:16.478Z,98887.59
2023-03-07T14:27:20.174Z,98888.41
2023-03-07T14:32:24.468Z,98890.09
2023-03-07T14:37:28.486Z,98891.84
2023-03-07T14:42:39.543Z,98904.81
2023-03-07T14:48:02.973Z,98916.97
2023-03-07T14:53:12.356Z,98910.84
2023-03-07T14:58:20.001Z,98902.97
2023-03-07T15:03:22.001Z,98900.22
2023-03-07T15:08:27.205Z,98899.34
2023-03-07T15:13:40.228Z,98895.88
2023-03-07T15:18:45.909Z,98901.22
2023-03-07T15:23:52.278Z,98904.59
2023-03-07T15:29:02.240Z,98901.13
2023-03-07T15:34:12.637Z,98905.44
2023-03-07T15:39:32.572Z,98909.75
2023-03-07T15:44:36.780Z,98923.84
2023-03-07T15:49:43.144Z,98928.16
2023-03-07T15:54:51.598Z,98938.69
2023-03-07T15:59:59.604Z,98937.88
2023-03-07T16:05:03.404Z,98931.84
2023-03-07T16:10:06.330Z,98928.31
2023-03-07T16:15:15.846Z,98949.28
2023-03-07T16:20:20.800Z,98943.22
2023-03-07T16:25:25.788Z,98943.28
2023-03-07T16:30:29.787Z,98948.50
2023-03-07T16:35:32.163Z,98945.06
2023-03-07T16:40:34.799Z,98965.13
2023-03-07T16:45:40.056Z,98970.38
2023-03-07T16:50:42.166Z,98967.78
2023-03-07T16:55:45.632Z,98968.72
2023-03-07T17:00:49.656Z,98975.69
2023-03-07T17:05:51.772Z,98987.94
2023-03-07T17:10:53.900Z,98991.44
2023-03-07T17:15:57.533Z,98994.06
2023-03-07T17:20:59.712Z,99000.19
2023-03-07T17:26:01.919Z,99001.97
2023-03-07T17:31:06.022Z,98998.50
2023-03-07T17:36:10.294Z,99023.81
2023-03-07T17:41:12.760Z,99015.97
2023-03-07T17:46:16.283Z,99021.22
2023-03-07T17:51:18.245Z,99026.44
2023-03-07T17:56:20.496Z,99024.72
2023-03-07T18:01:24.139Z,99025.59
2023-03-07T18:06:26.849Z,99026.47
2023-03-07T18:11:28.999Z,99027.34
2023-03-07T18:16:32.620Z,99024.75
2023-03-07T18:21:35.122Z,99036.06
2023-03-07T18:26:37.068Z,99035.19
2023-03-07T18:31:40.648Z,99036.94
2023-03-07T18:36:43.052Z,99043.03
2023-03-07T18:41:45.011Z,99043.88
2023-03-07T18:46:48.266Z,99041.25
2023-03-07T18:51:50.185Z,99045.59
2023-03-07T18:56:54.858Z,99048.25
2023-03-07T19:01:58.020Z,99040.44
2023-03-07T19:07:00.087Z,99056.09
2023-03-07T19:12:02.801Z,99054.34
2023-03-07T19:17:07.043Z,99064.78
2023-03-07T19:22:09.998Z,99062.19
2023-03-07T19:27:12.500Z,99074.38
2023-03-07T19:32:16.109Z,99083.09
2023-03-07T19:37:18.249Z,99080.50
2023-03-07T19:42:21.375Z,99086.59
2023-03-07T19:47:27.602Z,99089.19
2023-03-07T19:52:29.819Z,99084.84
2023-03-07T19:57:35.290Z,99088.31
2023-03-07T20:02:39.008Z,99092.69
2023-03-07T20:07:41.302Z,99088.31
2023-03-07T20:12:44.187Z,99104.88
2023-03-07T20:17:48.237Z,99106.63
2023-03-07T20:22:54.218Z,99112.72
2023-03-07T20:27:58.164Z,99113.63
2023-03-07T20:33:02.310Z,99121.44
2023-03-07T20:38:04.951Z,99136.25
2023-03-07T20:43:08.021Z,99154.53
2023-03-07T20:48:14.335Z,99157.13
2023-03-07T20:53:16.740Z,99156.25
2023-03-07T20:58:19.914Z,99162.38
2023-03-07T21:03:24.848Z,99164.13
2023-03-07T21:08:29.044Z,99171.06
2023-03-07T21:13:32.644Z,99179.78
2023-03-07T21:18:37.219Z,99194.56
2023-03-07T21:23:40.936Z,99205.91
2023-03-07T21:28:44.253Z,99211.16
2023-03-07T21:33:51.647Z,99198.09
2023-03-07T21:38:55.307Z,99209.41
2023-03-07T21:43:58.305Z,99223.34
2023-03-07T21:49:02.104Z,99219.84
2023-03-07T21:54:05.157Z,99222.44
2023-03-07T21:59:07.635Z,99232.84
2023-03-07T22:04:11.297Z,99237.19
2023-03-07T22:09:13.713Z,99231.13
2023-03-07T22:14:15.472Z,99258.09
2023-03-07T22:19:19.029Z,99248.50
2023-03-07T22:24:21.080Z,99264.16
2023-03-07T22:29:23.330Z,99264.13
2023-03-07T22:34:26.806Z,99264.13
2023-03-07T22:39:28.861Z,99273.69
2023-03-07T22:44:30.959Z,99275.44
2023-03-07T22:49:35.154Z,99287.59
2023-03-07T22:54:37.359Z,99284.13
2023-03-07T22:59:39.695Z,99276.28
2023-03-07T23:04:43.407Z,99278.03
2023-03-07T23:09:45.592Z,99281.50
2023-03-07T23:14:47.713Z,99293.69
2023-03-07T23:19:52.699Z,99294.53
2023-03-07T23:24:54.756Z,99286.69
2023-03-07T23:29:57.412Z,99297.97
2023-03-07T23:35:01.028Z,99299.66
2023-03-07T23:40:03.335Z,99291.78
2023-03-07T23:45:06.373Z,99307.38
2023-03-07T23:50:11.412Z,99319.53
2023-03-07T23:55:13.735Z,99330.84
